createdAt,value
2018-07-22T00:24:02.770Z,3.5
2018-07-22T00:39:02.800Z,4.4
2018-07-22T00:54:09.826Z,3.8
2018-07-22T02:04:22.477Z,3.8
2018-07-22T02:49:40.333Z,4.5
2018-07-22T04:00:06.115Z,3.7
2018-07-22T04:50:19.793Z,4.3
2018-07-22T05:20:19.865Z,3.8
2018-07-22T05:35:31.632Z,4.1
2018-07-22T06:10:44.306Z,3.2
2018-07-22T06:25:44.050Z,5.1
2018-07-22T06:45:44.376Z,3.9
2018-07-22T07:01:00.243Z,2.6
2018-07-22T08:41:23.955Z,5.1
2018-07-22T08:56:23.884Z,4.3
2018-07-22T09:11:36.620Z,4.7
2018-07-22T10:16:47.853Z,6.9
2018-07-22T10:36:47.846Z,7.4
2018-07-22T11:57:17.659Z,19.5
2018-07-22T12:17:18.383Z,16.4
2018-07-22T12:47:30.381Z,16
2018-07-22T13:02:30.669Z,15.1
2018-07-22T13:22:42.320Z,16.6
2018-07-22T13:37:42.019Z,17
2018-07-22T13:52:42.145Z,15
2018-07-22T14:12:53.799Z,14.7
2018-07-22T14:27:54.798Z,17.3
2018-07-22T14:42:53.971Z,21
2018-07-22T14:57:53.786Z,19.7
2018-07-22T15:18:06.505Z,16.9
2018-07-22T15:33:05.778Z,12.9
2018-07-22T15:48:05.898Z,14.5
2018-07-22T16:08:17.161Z,11.9
2018-07-22T16:23:17.773Z,11.1
2018-07-22T16:38:17.237Z,14.1
2018-07-22T16:53:17.210Z,10.4
2018-07-22T17:13:29.648Z,8.4
2018-07-22T17:28:29.775Z,8.1
2018-07-22T17:43:29.374Z,10.8
2018-07-22T18:03:40.250Z,7.9
2018-07-22T18:18:40.381Z,6.2
2018-07-22T18:53:40.228Z,6
2018-07-22T19:08:53.122Z,8.8
2018-07-22T19:38:52.975Z,7.9
2018-07-22T19:59:05.444Z,7.1
2018-07-22T20:49:18.671Z,6.6
